createdAt,value
2024-03-28T00:01:23.481Z,18.97
2024-03-28T00:02:23.542Z,18.99
2024-03-28T00:03:23.528Z,19.05
2024-03-28T00:04:23.534Z,18.99
2024-03-28T00:05:23.606Z,18.97
2024-03-28T00:06:23.558Z,18.99
2024-03-28T00:07:23.511Z,18.99
2024-03-28T00:08:23.511Z,18.99
2024-03-28T00:09:23.520Z,18.99
2024-03-28T00:10:23.568Z,18.96
2024-03-28T00:11:23.532Z,18.94
2024-03-28T00:13:23.555Z,18.94
2024-03-28T00:14:23.536Z,18.94
2024-03-28T00:15:23.560Z,18.93
2024-03-28T00:16:23.545Z,18.93
2024-03-28T00:17:23.582Z,18.93
2024-03-28T00:18:23.571Z,18.96
2024-03-28T00:19:30.374Z,18.94
2024-03-28T00:20:23.609Z,18.93
2024-03-28T00:21:23.642Z,18.96
2024-03-28T00:22:23.655Z,18.99
2024-03-28T00:23:23.659Z,18.99
2024-03-28T00:24:23.690Z,18.97
2024-03-28T00:25:23.670Z,18.97
2024-03-28T00:26:23.755Z,18.97
2024-03-28T00:27:24.728Z,18.94
2024-03-28T00:28:23.711Z,18.97
2024-03-28T00:29:23.761Z,18.97
2024-03-28T00:30:23.784Z,18.96
2024-03-28T00:31:23.813Z,18.96
2024-03-28T00:33:23.803Z,18.96
2024-03-28T00:34:23.811Z,18.96
2024-03-28T00:35:23.810Z,18.93
2024-03-28T00:36:23.818Z,18.94
2024-03-28T00:37:23.847Z,18.93
2024-03-28T00:38:23.863Z,18.94
2024-03-28T00:40:23.871Z,18.97
2024-03-28T00:42:23.889Z,18.94
2024-03-28T00:43:23.897Z,18.94
2024-03-28T00:44:23.900Z,18.94
2024-03-28T00:45:23.911Z,18.94
2024-03-28T00:46:23.919Z,18.96
2024-03-28T00:47:23.949Z,18.94
2024-03-28T00:48:23.997Z,18.93
2024-03-28T00:49:24.014Z,18.93
2024-03-28T00:50:24.010Z,18.94
2024-03-28T00:51:24.027Z,18.94
2024-03-28T00:52:24.070Z,18.91
2024-03-28T00:53:24.071Z,18.93
2024-03-28T00:54:24.082Z,18.93
2024-03-28T00:55:24.052Z,18.93
2024-03-28T00:57:24.102Z,18.91
2024-03-28T00:58:24.127Z,18.94
2024-03-28T00:59:24.114Z,18.93
2024-03-28T01:00:24.188Z,18.93
2024-03-28T01:01:24.191Z,18.91
2024-03-28T01:02:24.204Z,18.91
2024-03-28T01:03:24.187Z,18.96
2024-03-28T01:04:24.208Z,18.96
2024-03-28T01:05:24.217Z,18.93
2024-03-28T01:06:24.238Z,18.89
2024-03-28T01:07:24.283Z,18.90
2024-03-28T01:08:24.280Z,18.91
2024-03-28T01:09:24.345Z,18.91
2024-03-28T01:10:24.348Z,18.91
2024-03-28T01:11:24.359Z,18.90
2024-03-28T01:12:24.348Z,18.93
2024-03-28T01:13:24.383Z,18.93
2024-03-28T01:14:24.390Z,18.91
2024-03-28T01:15:24.390Z,18.91
2024-03-28T01:16:24.412Z,18.90
2024-03-28T01:17:24.399Z,18.87
2024-03-28T01:18:24.442Z,18.90
2024-03-28T01:19:24.419Z,18.93
2024-03-28T01:20:24.427Z,18.91
2024-03-28T01:21:24.434Z,18.90
2024-03-28T01:22:24.473Z,18.94
2024-03-28T01:24:24.484Z,18.91
2024-03-28T01:25:24.514Z,18.93
2024-03-28T01:26:24.496Z,18.93
2024-03-28T01:27:24.512Z,18.90
2024-03-28T01:28:24.548Z,18.89
2024-03-28T01:29:24.537Z,18.87
2024-03-28T01:30:24.563Z,18.86
2024-03-28T01:31:24.588Z,18.89
2024-03-28T01:32:24.623Z,18.89
2024-03-28T01:33:24.631Z,18.89
2024-03-28T01:34:24.620Z,18.89
2024-03-28T01:35:24.632Z,18.89
2024-03-28T01:36:24.635Z,18.87
2024-03-28T01:37:24.627Z,18.86
2024-03-28T01:38:24.671Z,18.86
2024-03-28T01:39:24.602Z,18.87
2024-03-28T01:40:24.621Z,18.87
2024-03-28T01:41:24.680Z,18.87
2024-03-28T01:42:24.673Z,18.86
2024-03-28T01:43:24.663Z,18.86
2024-03-28T01:44:24.704Z,18.83
2024-03-28T01:45:24.732Z,18.84
2024-03-28T01:46:35.728Z,18.83
2024-03-28T01:47:41.958Z,18.86
2024-03-28T01:48:24.704Z,18.84
2024-03-28T01:49:24.721Z,18.84
2024-03-28T01:50:24.765Z,18.83
2024-03-28T01:51:24.735Z,18.89
2024-03-28T01:52:24.747Z,18.91
2024-03-28T01:53:24.752Z,18.90
2024-03-28T01:54:24.797Z,18.87
2024-03-28T01:55:25.785Z,18.87
2024-03-28T01:56:24.834Z,18.86
2024-03-28T01:57:24.774Z,18.84
2024-03-28T01:58:24.788Z,18.83
2024-03-28T01:59:24.827Z,18.86
2024-03-28T02:00:24.848Z,18.87
2024-03-28T02:01:24.809Z,18.84
2024-03-28T02:02:24.826Z,18.84
2024-03-28T02:03:24.833Z,18.83
2024-03-28T02:04:24.864Z,18.86
2024-03-28T02:06:24.862Z,18.86
2024-03-28T02:07:24.909Z,18.86
2024-03-28T02:08:24.888Z,18.84
2024-03-28T02:09:24.896Z,18.86
2024-03-28T02:10:24.911Z,18.86
2024-03-28T02:11:24.929Z,18.84
2024-03-28T02:12:24.927Z,18.87
2024-03-28T02:13:24.932Z,18.89
2024-03-28T02:14:24.986Z,18.86
2024-03-28T02:15:25.042Z,18.86
2024-03-28T02:16:25.006Z,18.84
2024-03-28T02:17:25.039Z,18.84
2024-03-28T02:18:25.069Z,18.79
2024-03-28T02:19:25.046Z,18.82
2024-03-28T02:20:25.263Z,18.78
2024-03-28T02:21:25.145Z,18.83
2024-03-28T02:22:25.120Z,18.83
2024-03-28T02:23:25.165Z,18.83
2024-03-28T02:24:25.167Z,18.83
2024-03-28T02:25:25.181Z,18.83
2024-03-28T02:26:25.226Z,18.82
2024-03-28T02:27:25.204Z,18.82
2024-03-28T02:28:25.178Z,18.82
2024-03-28T02:29:25.205Z,18.79
2024-03-28T02:30:25.193Z,18.79
2024-03-28T02:31:25.227Z,18.78
2024-03-28T02:32:25.209Z,18.79
2024-03-28T02:33:25.234Z,18.75
2024-03-28T02:34:25.244Z,18.75
2024-03-28T02:35:25.252Z,18.78
2024-03-28T02:36:25.270Z,18.82
2024-03-28T02:37:25.299Z,18.82
2024-03-28T02:38:25.314Z,18.82
2024-03-28T02:39:25.330Z,18.82
2024-03-28T02:40:25.377Z,18.84
2024-03-28T02:41:25.400Z,18.79
2024-03-28T02:42:25.399Z,18.76
2024-03-28T02:43:25.364Z,18.79
2024-03-28T02:44:25.408Z,18.79
2024-03-28T02:45:25.421Z,18.79
2024-03-28T02:46:25.441Z,18.82
2024-03-28T02:47:25.479Z,18.83
2024-03-28T02:48:25.484Z,18.84
2024-03-28T02:49:25.468Z,18.84
2024-03-28T02:50:25.490Z,18.79
2024-03-28T02:52:25.518Z,18.83
2024-03-28T02:53:25.485Z,18.78
2024-03-28T02:54:25.517Z,18.79
2024-03-28T02:55:25.506Z,18.78
2024-03-28T02:56:25.510Z,18.78
2024-03-28T02:57:25.544Z,18.82
2024-03-28T02:58:25.523Z,18.82
2024-03-28T02:59:25.563Z,18.82
2024-03-28T03:00:25.567Z,18.82
2024-03-28T03:01:25.576Z,18.79
2024-03-28T03:02:25.622Z,18.82
2024-03-28T03:03:25.625Z,18.76
2024-03-28T03:04:25.631Z,18.78
2024-03-28T03:05:25.664Z,18.83
2024-03-28T03:06:25.657Z,18.79
2024-03-28T03:07:25.675Z,18.75
2024-03-28T03:08:25.699Z,18.75
2024-03-28T03:09:25.683Z,18.75
2024-03-28T03:10:25.690Z,18.78
2024-03-28T03:11:25.702Z,18.75
2024-03-28T03:12:25.706Z,18.75
2024-03-28T03:13:25.761Z,18.76
2024-03-28T03:14:25.758Z,18.72
2024-03-28T03:15:25.775Z,18.74
2024-03-28T03:16:25.819Z,18.71
2024-03-28T03:17:25.794Z,18.71
2024-03-28T03:18:27.842Z,18.69
2024-03-28T03:19:25.845Z,18.69
2024-03-28T03:20:25.854Z,18.69
2024-03-28T03:21:25.856Z,18.69
2024-03-28T03:22:25.868Z,18.71
2024-03-28T03:23:25.876Z,18.66
2024-03-28T03:24:25.893Z,18.69
2024-03-28T03:25:25.936Z,18.71
2024-03-28T03:26:25.903Z,18.72
2024-03-28T03:27:25.905Z,18.71
2024-03-28T03:28:25.920Z,18.68
2024-03-28T03:29:25.932Z,18.72
2024-03-28T03:30:25.947Z,18.72
2024-03-28T03:31:25.942Z,18.69
2024-03-28T03:32:25.977Z,18.68
2024-03-28T03:33:26.007Z,18.65
2024-03-28T03:34:25.976Z,18.66
2024-03-28T03:35:25.985Z,18.69
2024-03-28T03:36:26.026Z,18.68
2024-03-28T03:37:25.994Z,18.66
2024-03-28T03:38:26.035Z,18.66
2024-03-28T03:39:26.043Z,18.64
2024-03-28T03:40:26.011Z,18.66
2024-03-28T03:41:26.017Z,18.65
2024-03-28T03:42:26.038Z,18.64
2024-03-28T03:43:26.019Z,18.66
2024-03-28T03:44:26.032Z,18.68
2024-03-28T03:45:26.014Z,18.66
2024-03-28T03:46:26.027Z,18.66
2024-03-28T03:47:26.029Z,18.66
2024-03-28T03:48:26.060Z,18.66
2024-03-28T03:49:26.073Z,18.65
2024-03-28T03:50:26.051Z,18.62
2024-03-28T03:51:26.057Z,18.64
2024-03-28T03:52:26.086Z,18.65
2024-03-28T03:53:26.175Z,18.62
2024-03-28T03:54:26.142Z,18.64
2024-03-28T03:55:26.120Z,18.64
2024-03-28T03:56:26.197Z,18.64
2024-03-28T03:57:26.170Z,18.65
2024-03-28T03:58:26.233Z,18.66
2024-03-28T03:59:26.215Z,18.60
2024-03-28T04:00:26.217Z,18.60
2024-03-28T04:01:26.206Z,18.59
2024-03-28T04:02:26.200Z,18.60
2024-03-28T04:03:26.241Z,18.62
2024-03-28T04:04:26.255Z,18.59
2024-03-28T04:05:26.279Z,18.59
2024-03-28T04:06:26.261Z,18.57
2024-03-28T04:07:26.276Z,18.59
2024-03-28T04:08:26.281Z,18.59
2024-03-28T04:09:26.286Z,18.60
2024-03-28T04:10:26.331Z,18.60
2024-03-28T04:11:26.365Z,18.60
2024-03-28T04:12:26.329Z,18.60
2024-03-28T04:13:26.333Z,18.54
2024-03-28T04:14:26.344Z,18.56
2024-03-28T04:15:26.391Z,18.56
2024-03-28T04:16:26.456Z,18.54
2024-03-28T04:17:26.444Z,18.51
2024-03-28T04:18:26.422Z,18.51
2024-03-28T04:19:26.451Z,18.50
2024-03-28T04:20:26.456Z,18.50
2024-03-28T04:21:26.460Z,18.54
2024-03-28T04:22:26.461Z,18.54
2024-03-28T04:23:26.491Z,18.51
2024-03-28T04:24:26.505Z,18.53
2024-03-28T04:25:26.521Z,18.51
2024-03-28T04:26:26.516Z,18.53
2024-03-28T04:27:26.513Z,18.50
2024-03-28T04:28:26.518Z,18.49
2024-03-28T04:29:26.549Z,18.50
2024-03-28T04:30:26.652Z,18.51
2024-03-28T04:31:26.574Z,18.51
2024-03-28T04:32:26.605Z,18.53
2024-03-28T04:33:26.577Z,18.51
2024-03-28T04:34:26.586Z,18.51
2024-03-28T04:35:26.597Z,18.50
2024-03-28T04:36:26.617Z,18.50
2024-03-28T04:37:26.724Z,18.49
2024-03-28T04:38:26.603Z,18.47
2024-03-28T04:39:26.644Z,18.49
2024-03-28T04:40:26.628Z,18.49
2024-03-28T04:41:26.636Z,18.47
2024-03-28T04:42:26.673Z,18.47
2024-03-28T04:43:26.652Z,18.49
2024-03-28T04:47:26.724Z,18.53
2024-03-28T04:48:26.738Z,18.54
2024-03-28T04:49:26.783Z,18.56
2024-03-28T04:50:26.785Z,18.50
2024-03-28T04:51:26.771Z,18.47
2024-03-28T04:52:26.825Z,18.46
2024-03-28T04:53:26.820Z,18.47
2024-03-28T04:54:26.823Z,18.50
2024-03-28T04:55:27.958Z,18.47
2024-03-28T04:56:26.874Z,18.44
2024-03-28T04:57:26.865Z,18.42
2024-03-28T04:58:26.873Z,18.42
2024-03-28T04:59:26.864Z,18.39
2024-03-28T05:00:26.911Z,18.38
2024-03-28T05:01:26.884Z,18.41
2024-03-28T05:02:26.880Z,18.44
2024-03-28T05:03:26.932Z,18.39
2024-03-28T05:04:26.900Z,18.36
2024-03-28T05:05:26.907Z,18.34
2024-03-28T05:06:26.911Z,18.41
2024-03-28T05:07:26.962Z,18.41
2024-03-28T05:08:26.970Z,18.41
2024-03-28T05:09:26.990Z,18.38
2024-03-28T05:10:27.043Z,18.41
2024-03-28T05:11:27.014Z,18.39
2024-03-28T05:12:27.022Z,18.41
2024-03-28T05:13:27.125Z,18.42
2024-03-28T05:14:27.093Z,18.42
2024-03-28T05:15:27.142Z,18.41
2024-03-28T05:16:27.107Z,18.38
2024-03-28T05:17:27.109Z,18.42
2024-03-28T05:18:27.074Z,18.39
2024-03-28T05:19:27.094Z,18.46
2024-03-28T05:20:27.110Z,18.44
2024-03-28T05:21:27.155Z,18.41
2024-03-28T05:22:27.190Z,18.41
2024-03-28T05:23:27.106Z,18.38
2024-03-28T05:24:27.119Z,18.38
2024-03-28T05:25:27.156Z,18.36
2024-03-28T05:26:27.196Z,18.38
2024-03-28T05:27:28.770Z,18.41
2024-03-28T05:28:27.237Z,18.44
2024-03-28T05:29:27.205Z,18.47
2024-03-28T05:30:27.271Z,18.47
2024-03-28T05:31:27.250Z,18.44
2024-03-28T05:32:27.282Z,18.46
2024-03-28T05:33:27.300Z,18.47
2024-03-28T05:34:27.375Z,18.49
2024-03-28T05:35:27.315Z,18.50
2024-03-28T05:36:27.326Z,18.50
2024-03-28T05:37:27.461Z,18.50
2024-03-28T05:38:27.387Z,18.56
2024-03-28T05:39:27.361Z,18.56
2024-03-28T05:40:27.411Z,18.56
2024-03-28T05:41:27.374Z,18.53
2024-03-28T05:42:27.371Z,18.53
2024-03-28T05:43:27.391Z,18.53
2024-03-28T05:44:27.395Z,18.57
2024-03-28T05:45:27.401Z,18.59
2024-03-28T05:46:27.426Z,18.59
2024-03-28T05:47:27.397Z,18.60
2024-03-28T05:48:27.411Z,18.59
2024-03-28T05:49:27.429Z,18.59
2024-03-28T05:50:27.425Z,18.57
2024-03-28T05:51:27.441Z,18.59
2024-03-28T05:52:27.516Z,18.57
2024-03-28T05:54:27.503Z,18.56
2024-03-28T05:55:28.332Z,18.51
2024-03-28T05:56:27.524Z,18.54
2024-03-28T05:57:27.536Z,18.56
2024-03-28T05:58:27.562Z,18.56
2024-03-28T05:59:27.603Z,18.59
2024-03-28T06:00:27.706Z,18.62
2024-03-28T06:01:27.612Z,18.64
2024-03-28T06:02:27.633Z,18.60
2024-03-28T06:03:28.594Z,18.60
2024-03-28T06:04:27.686Z,18.60
2024-03-28T06:05:27.677Z,18.57
2024-03-28T06:06:27.645Z,18.62
2024-03-28T06:07:27.675Z,18.59
2024-03-28T06:08:27.634Z,18.59
2024-03-28T06:09:27.666Z,18.57
2024-03-28T06:10:27.682Z,18.60
2024-03-28T06:11:27.655Z,18.59
2024-03-28T06:12:27.686Z,18.62
2024-03-28T06:13:27.752Z,18.59
2024-03-28T06:14:27.679Z,18.60
2024-03-28T06:15:27.709Z,18.57
2024-03-28T06:16:27.716Z,18.60
2024-03-28T06:17:27.723Z,18.62
2024-03-28T06:18:27.768Z,18.62
2024-03-28T06:19:27.784Z,18.66
2024-03-28T06:20:27.808Z,18.69
2024-03-28T06:21:27.797Z,18.68
2024-03-28T06:22:27.834Z,18.65
2024-03-28T06:23:27.826Z,18.62
2024-03-28T06:24:27.840Z,18.62
2024-03-28T06:25:27.904Z,18.65
2024-03-28T06:26:27.924Z,18.62
2024-03-28T06:27:27.894Z,18.62
2024-03-28T06:28:27.958Z,18.65
2024-03-28T06:29:27.922Z,18.66
2024-03-28T06:30:27.913Z,18.72
2024-03-28T06:31:27.926Z,18.66
2024-03-28T06:32:27.926Z,18.68
2024-03-28T06:33:27.922Z,18.69
2024-03-28T06:34:27.950Z,18.66
2024-03-28T06:35:27.944Z,18.66
2024-03-28T06:36:27.952Z,18.68
2024-03-28T06:37:27.947Z,18.71
2024-03-28T06:38:27.966Z,18.69
2024-03-28T06:39:27.960Z,18.72
2024-03-28T06:40:27.996Z,18.71
2024-03-28T06:41:28.033Z,18.71
2024-03-28T06:42:27.998Z,18.71
2024-03-28T06:43:28.049Z,18.66
2024-03-28T06:44:28.070Z,18.66
2024-03-28T06:45:28.151Z,18.71
2024-03-28T06:46:28.217Z,18.72
2024-03-28T06:47:28.133Z,18.72
2024-03-28T06:48:28.136Z,18.74
2024-03-28T06:49:28.238Z,18.74
2024-03-28T06:50:28.265Z,18.72
2024-03-28T06:51:28.186Z,18.74
2024-03-28T06:52:28.168Z,18.71
2024-03-28T06:53:28.255Z,18.71
2024-03-28T06:54:28.178Z,18.76
2024-03-28T06:55:28.210Z,18.72
2024-03-28T06:56:28.191Z,18.75
2024-03-28T06:57:28.197Z,18.74
2024-03-28T06:58:28.260Z,18.74
2024-03-28T06:59:28.193Z,18.74
2024-03-28T07:00:28.181Z,18.76
2024-03-28T07:01:28.209Z,18.74
2024-03-28T07:02:28.222Z,18.68
2024-03-28T07:03:28.193Z,18.69
2024-03-28T07:04:28.262Z,18.65
2024-03-28T07:05:28.209Z,18.64
2024-03-28T07:06:28.244Z,18.65
2024-03-28T07:07:28.304Z,18.65
2024-03-28T07:08:28.260Z,18.66
2024-03-28T07:09:28.282Z,18.66
2024-03-28T07:10:28.301Z,18.66
2024-03-28T07:11:28.268Z,18.68
2024-03-28T07:12:28.308Z,18.69
2024-03-28T07:13:28.313Z,18.71
2024-03-28T07:14:28.321Z,18.69
2024-03-28T07:15:28.297Z,18.65
2024-03-28T07:16:28.347Z,18.66
2024-03-28T07:17:28.334Z,18.68
2024-03-28T07:18:28.347Z,18.68
2024-03-28T07:19:28.343Z,18.65
2024-03-28T07:20:28.349Z,18.68
2024-03-28T07:21:28.354Z,18.76
2024-03-28T07:22:28.400Z,18.76
2024-03-28T07:23:28.430Z,18.78
2024-03-28T07:24:28.418Z,18.79
2024-03-28T07:25:28.475Z,18.79
2024-03-28T07:26:28.458Z,18.86
2024-03-28T07:27:28.420Z,18.93
2024-03-28T07:28:28.449Z,19.01
2024-03-28T07:29:28.434Z,19.07
2024-03-28T07:30:28.430Z,19.12
2024-03-28T07:31:28.457Z,19.13
2024-03-28T07:32:28.469Z,19.12
2024-03-28T07:33:28.444Z,19.12
2024-03-28T07:34:28.475Z,19.21
2024-03-28T07:35:29.183Z,19.23
2024-03-28T07:36:28.451Z,19.24
2024-03-28T07:37:28.511Z,19.15
2024-03-28T07:38:28.474Z,19.10
2024-03-28T07:39:28.475Z,19.12
2024-03-28T07:40:28.526Z,19.20
2024-03-28T07:41:28.550Z,19.24
2024-03-28T07:42:28.539Z,19.27
2024-03-28T07:43:28.599Z,19.28
2024-03-28T07:44:28.534Z,19.31
2024-03-28T07:45:28.574Z,19.32
2024-03-28T07:46:28.641Z,19.34
2024-03-28T07:47:28.663Z,19.35
2024-03-28T07:48:28.591Z,19.39
2024-03-28T07:49:28.665Z,19.39
2024-03-28T07:50:28.623Z,19.43
2024-03-28T07:51:28.616Z,19.45
2024-03-28T07:52:28.660Z,19.49
2024-03-28T07:53:28.624Z,19.52
2024-03-28T07:54:28.674Z,19.52
2024-03-28T07:55:28.663Z,19.52
2024-03-28T07:56:28.676Z,19.65
2024-03-28T07:57:28.686Z,19.65
2024-03-28T07:58:28.743Z,19.71
2024-03-28T07:59:28.716Z,19.68
2024-03-28T08:00:28.731Z,19.65
2024-03-28T08:01:29.343Z,19.68
2024-03-28T08:02:28.745Z,19.65
2024-03-28T08:03:28.744Z,19.65
2024-03-28T08:04:28.813Z,19.68
2024-03-28T08:05:28.789Z,19.67
2024-03-28T08:06:28.814Z,19.68
2024-03-28T08:07:28.848Z,19.64
2024-03-28T08:08:28.867Z,19.60
2024-03-28T08:09:28.906Z,19.61
2024-03-28T08:10:28.929Z,19.64
2024-03-28T08:11:28.893Z,19.65
2024-03-28T08:12:28.926Z,19.67
2024-03-28T08:13:28.991Z,19.68
2024-03-28T08:14:28.974Z,19.70
2024-03-28T08:15:28.949Z,19.65
2024-03-28T08:16:29.000Z,19.61
2024-03-28T08:18:29.029Z,19.57
2024-03-28T08:19:29.117Z,19.57
2024-03-28T08:20:29.069Z,19.55
2024-03-28T08:21:29.040Z,19.55
2024-03-28T08:22:29.060Z,19.58
2024-03-28T08:23:29.050Z,19.55
2024-03-28T08:24:29.047Z,19.60
2024-03-28T08:25:29.078Z,19.64
2024-03-28T08:26:29.082Z,19.68
2024-03-28T08:27:29.068Z,19.78
2024-03-28T08:28:29.084Z,19.75
2024-03-28T08:29:29.034Z,19.71
2024-03-28T08:30:29.089Z,19.67
2024-03-28T08:31:29.129Z,19.75
2024-03-28T08:32:29.135Z,19.75
2024-03-28T08:33:29.107Z,19.72
2024-03-28T08:34:29.113Z,19.71
2024-03-28T08:35:29.154Z,19.76
2024-03-28T08:36:29.178Z,19.79
2024-03-28T08:37:29.212Z,19.82
2024-03-28T08:38:29.271Z,19.80
2024-03-28T08:39:29.252Z,19.76
2024-03-28T08:40:29.295Z,19.75
2024-03-28T08:41:29.295Z,19.71
2024-03-28T08:42:29.332Z,19.68
2024-03-28T08:43:29.340Z,19.64
2024-03-28T08:44:29.336Z,19.65
2024-03-28T08:45:29.395Z,19.67
2024-03-28T08:46:29.428Z,19.71
2024-03-28T08:47:29.416Z,19.72
2024-03-28T08:48:29.423Z,19.76
2024-03-28T08:49:29.422Z,19.75
2024-03-28T08:50:29.401Z,19.76
2024-03-28T08:51:29.438Z,19.72
2024-03-28T08:52:29.451Z,19.71
2024-03-28T08:53:29.451Z,19.76
2024-03-28T08:54:29.457Z,19.79
2024-03-28T08:55:29.475Z,19.76
2024-03-28T08:56:31.350Z,19.75
2024-03-28T08:57:29.487Z,19.70
2024-03-28T08:58:29.513Z,19.75
2024-03-28T08:59:29.493Z,19.71
2024-03-28T09:00:29.535Z,19.65
2024-03-28T09:01:29.514Z,19.65
2024-03-28T09:02:29.558Z,19.67
2024-03-28T09:03:29.549Z,19.67
2024-03-28T09:04:29.599Z,19.67
2024-03-28T09:05:29.609Z,19.68
2024-03-28T09:06:29.682Z,19.72
2024-03-28T09:07:29.598Z,19.68
2024-03-28T09:08:29.599Z,19.68
2024-03-28T09:09:29.587Z,19.70
2024-03-28T09:10:29.623Z,19.68
2024-03-28T09:11:29.617Z,19.70
2024-03-28T09:12:29.698Z,19.68
2024-03-28T09:13:29.687Z,19.70
2024-03-28T09:14:29.718Z,19.68
2024-03-28T09:15:29.732Z,19.70
2024-03-28T09:16:29.775Z,19.75
2024-03-28T09:17:29.734Z,19.72
2024-03-28T09:18:29.734Z,19.72
2024-03-28T09:19:29.752Z,19.72
2024-03-28T09:20:29.773Z,19.76
2024-03-28T09:21:29.754Z,19.75
2024-03-28T09:22:29.771Z,19.75
2024-03-28T09:23:29.762Z,19.76
2024-03-28T09:24:29.736Z,19.80
2024-03-28T09:25:29.737Z,19.79
2024-03-28T09:26:29.753Z,19.83
2024-03-28T09:27:29.729Z,19.87
2024-03-28T09:28:29.740Z,19.89
2024-03-28T09:29:29.746Z,19.89
2024-03-28T09:30:29.770Z,19.86
2024-03-28T09:31:29.777Z,19.89
2024-03-28T09:32:29.804Z,19.86
2024-03-28T09:33:29.798Z,19.83
2024-03-28T09:34:29.833Z,19.85
2024-03-28T09:35:29.814Z,19.85
2024-03-28T09:36:29.854Z,19.86
2024-03-28T09:37:29.899Z,19.90
2024-03-28T09:38:29.874Z,19.92
2024-03-28T09:39:29.894Z,19.92
2024-03-28T09:40:29.928Z,19.97
2024-03-28T09:41:29.917Z,19.98
2024-03-28T09:42:29.941Z,19.98
2024-03-28T09:43:29.919Z,19.97
2024-03-28T09:44:29.936Z,20.01
2024-03-28T09:45:29.963Z,20.05
2024-03-28T09:46:29.969Z,20.12
2024-03-28T09:47:29.988Z,20.08
2024-03-28T09:48:29.955Z,20.08
2024-03-28T09:49:30.060Z,20.07
2024-03-28T09:50:29.978Z,20.05
2024-03-28T09:51:29.999Z,20.10
2024-03-28T09:52:30.005Z,20.10
2024-03-28T09:53:30.012Z,20.13
2024-03-28T09:54:30.027Z,20.12
2024-03-28T09:55:30.061Z,20.13
2024-03-28T09:56:30.039Z,20.15
2024-03-28T09:58:30.053Z,20.25
2024-03-28T09:59:30.069Z,20.30
2024-03-28T10:01:30.078Z,20.26
2024-03-28T10:02:30.154Z,20.22
2024-03-28T10:03:30.126Z,20.26
2024-03-28T10:04:30.162Z,20.30
2024-03-28T10:05:30.138Z,20.34
2024-03-28T10:06:30.178Z,20.38
2024-03-28T10:07:30.172Z,20.44
2024-03-28T10:08:30.212Z,20.46
2024-03-28T10:09:30.188Z,20.50
2024-03-28T10:10:30.226Z,20.50
2024-03-28T10:11:30.222Z,20.51
2024-03-28T10:12:30.239Z,20.53
2024-03-28T10:13:30.265Z,20.53
2024-03-28T10:14:30.273Z,20.46
2024-03-28T10:15:30.332Z,20.41
2024-03-28T10:16:30.378Z,20.40
2024-03-28T10:17:30.361Z,20.42
2024-03-28T10:18:30.362Z,20.42
2024-03-28T10:19:30.369Z,20.42
2024-03-28T10:20:30.366Z,20.53
2024-03-28T10:21:30.372Z,20.58
2024-03-28T10:22:30.387Z,20.61
2024-03-28T10:23:30.389Z,20.60
2024-03-28T10:24:30.383Z,20.66
2024-03-28T10:25:30.425Z,20.71
2024-03-28T10:26:30.377Z,20.75
2024-03-28T10:27:30.413Z,20.81
2024-03-28T10:28:30.433Z,20.88
2024-03-28T10:29:30.431Z,20.88
2024-03-28T10:30:30.405Z,20.88
2024-03-28T10:31:30.459Z,20.90
2024-03-28T10:32:30.449Z,20.93
2024-03-28T10:34:30.499Z,20.90
2024-03-28T10:35:30.493Z,20.93
2024-03-28T10:36:30.490Z,20.88
2024-03-28T10:37:36.794Z,20.85
2024-03-28T10:38:30.563Z,20.83
2024-03-28T10:40:30.544Z,20.82
2024-03-28T10:41:30.574Z,20.79
2024-03-28T10:42:30.617Z,20.73
2024-03-28T10:43:30.621Z,20.72
2024-03-28T10:44:30.635Z,20.75
2024-03-28T10:45:30.607Z,20.75
2024-03-28T10:46:30.597Z,20.79
2024-03-28T10:47:30.698Z,20.90
2024-03-28T10:48:30.610Z,20.91
2024-03-28T10:49:30.665Z,20.94
2024-03-28T10:50:30.675Z,20.98
2024-03-28T10:51:30.687Z,21.01
2024-03-28T10:52:30.697Z,21.05
2024-03-28T10:53:30.667Z,21.03
2024-03-28T10:54:30.703Z,21.05
2024-03-28T10:55:32.739Z,21.08
2024-03-28T10:56:30.685Z,21.01
2024-03-28T10:57:30.736Z,20.98
2024-03-28T10:58:30.763Z,21.05
2024-03-28T10:59:30.779Z,21.05
2024-03-28T11:00:30.774Z,21.09
2024-03-28T11:01:32.876Z,21.15
2024-03-28T11:02:30.795Z,21.18
2024-03-28T11:03:30.790Z,21.19
2024-03-28T11:04:31.422Z,21.26
2024-03-28T11:05:30.802Z,21.31
2024-03-28T11:06:30.839Z,21.31
2024-03-28T11:07:30.854Z,21.36
2024-03-28T11:08:30.893Z,21.38
2024-03-28T11:09:30.911Z,21.42
2024-03-28T11:10:30.949Z,21.43
2024-03-28T11:11:30.959Z,21.46
2024-03-28T11:12:30.950Z,21.40
2024-03-28T11:13:30.966Z,21.37
2024-03-28T11:14:30.982Z,21.42
2024-03-28T11:15:30.981Z,21.43
2024-03-28T11:16:31.008Z,21.43
2024-03-28T11:17:31.026Z,21.49
2024-03-28T11:18:31.004Z,21.48
2024-03-28T11:19:33.538Z,21.49
2024-03-28T11:20:31.047Z,21.51
2024-03-28T11:21:31.026Z,21.53
2024-03-28T11:22:31.079Z,21.55
2024-03-28T11:23:31.005Z,21.59
2024-03-28T11:24:31.054Z,21.64
2024-03-28T11:25:31.080Z,21.70
2024-03-28T11:26:31.093Z,21.71
2024-03-28T11:27:31.057Z,21.73
2024-03-28T11:28:31.081Z,21.75
2024-03-28T11:29:31.080Z,21.82
2024-03-28T11:30:31.116Z,21.81
2024-03-28T11:31:31.175Z,21.81
2024-03-28T11:32:31.141Z,21.79
2024-03-28T11:33:31.166Z,21.77
2024-03-28T11:34:31.254Z,21.75
2024-03-28T11:35:31.187Z,21.77
2024-03-28T11:36:31.225Z,21.81
2024-03-28T11:37:31.213Z,21.82
2024-03-28T11:38:31.222Z,21.86
2024-03-28T11:39:31.238Z,21.86
2024-03-28T11:40:31.274Z,21.89
2024-03-28T11:41:31.282Z,21.89
2024-03-28T11:43:31.364Z,21.99
2024-03-28T11:44:31.294Z,21.94
2024-03-28T11:45:31.903Z,21.81
2024-03-28T11:46:31.305Z,21.70
2024-03-28T11:47:33.077Z,21.66
2024-03-28T11:48:31.356Z,21.68
2024-03-28T11:49:31.478Z,21.74
2024-03-28T11:50:31.674Z,21.83
2024-03-28T11:51:31.362Z,21.90
2024-03-28T11:52:31.383Z,21.83
2024-03-28T11:53:31.363Z,21.73
2024-03-28T11:54:31.396Z,21.71
2024-03-28T11:55:31.373Z,21.71
2024-03-28T11:56:32.321Z,21.77
2024-03-28T11:57:31.474Z,21.83
2024-03-28T11:58:31.481Z,21.81
2024-03-28T11:59:31.462Z,21.77
2024-03-28T12:00:31.489Z,21.79
2024-03-28T12:01:31.474Z,21.91
2024-03-28T12:02:31.485Z,22.02
2024-03-28T12:03:31.519Z,22.04
2024-03-28T12:04:31.500Z,22.05
2024-03-28T12:05:31.524Z,22.05
2024-03-28T12:06:31.536Z,22.04
2024-03-28T12:07:31.577Z,21.86
2024-03-28T12:08:38.056Z,21.68
2024-03-28T12:09:31.633Z,21.55
2024-03-28T12:10:31.668Z,21.48
2024-03-28T12:11:31.677Z,21.34
2024-03-28T12:12:31.711Z,21.28
2024-03-28T12:13:31.760Z,21.30
2024-03-28T12:14:31.732Z,21.36
2024-03-28T12:15:31.746Z,21.51
2024-03-28T12:16:31.782Z,21.63
2024-03-28T12:17:31.806Z,21.68
2024-03-28T12:18:31.820Z,21.70
2024-03-28T12:19:31.835Z,21.70
2024-03-28T12:20:31.815Z,21.68
2024-03-28T12:21:31.835Z,21.67
2024-03-28T12:22:31.849Z,21.49
2024-03-28T12:23:31.891Z,21.33
2024-03-28T12:24:31.896Z,21.21
2024-03-28T12:25:31.947Z,21.13
2024-03-28T12:26:32.852Z,21.05
2024-03-28T12:27:32.478Z,21.00
2024-03-28T12:28:31.907Z,20.94
2024-03-28T12:29:31.931Z,20.87
2024-03-28T12:30:31.990Z,20.85
2024-03-28T12:31:31.994Z,20.91
2024-03-28T12:32:31.987Z,20.87
2024-03-28T12:33:32.006Z,20.87
2024-03-28T12:34:32.032Z,20.81
2024-03-28T12:35:32.052Z,20.75
2024-03-28T12:36:33.677Z,20.73
2024-03-28T12:37:32.062Z,20.73
2024-03-28T12:38:32.097Z,20.75
2024-03-28T12:39:32.101Z,20.82
2024-03-28T12:40:32.088Z,20.79
2024-03-28T12:41:32.108Z,20.72
2024-03-28T12:42:32.141Z,20.64
2024-03-28T12:43:32.180Z,20.64
2024-03-28T12:44:32.178Z,20.66
2024-03-28T12:45:32.197Z,20.64
2024-03-28T12:46:32.203Z,20.60
2024-03-28T12:47:32.215Z,20.57
2024-03-28T12:48:32.209Z,20.57
2024-03-28T12:49:32.216Z,20.51
2024-03-28T12:50:32.227Z,20.53
2024-03-28T12:51:32.230Z,20.53
2024-03-28T12:52:32.229Z,20.53
2024-03-28T12:53:32.243Z,20.53
2024-03-28T12:54:32.273Z,20.54
2024-03-28T12:55:32.258Z,20.58
2024-03-28T12:56:32.296Z,20.61
2024-03-28T12:57:32.300Z,20.68
2024-03-28T12:58:32.327Z,20.72
2024-03-28T12:59:32.318Z,20.79
2024-03-28T13:00:32.352Z,20.82
2024-03-28T13:01:32.403Z,20.78
2024-03-28T13:02:32.410Z,20.72
2024-03-28T13:03:32.386Z,20.66
2024-03-28T13:04:32.433Z,20.58
2024-03-28T13:05:32.423Z,20.58
2024-03-28T13:06:32.423Z,20.64
2024-03-28T13:07:32.408Z,20.71
2024-03-28T13:08:32.439Z,20.73
2024-03-28T13:09:32.434Z,20.75
2024-03-28T13:10:32.449Z,20.76
2024-03-28T13:11:32.434Z,20.81